sensor_id;sensor_type;location;lat;lon;timestamp;P1;durP1;ratioP1;P2;durP2;ratioP2
52188;SDS011;38162;45.926;13.608;2022-12-16T00:01:31;6.10;;;2.63;;
52188;SDS011;38162;45.926;13.608;2022-12-16T00:03:58;3.33;;;2.77;;
52188;SDS011;38162;45.926;13.608;2022-12-16T00:06:26;5.47;;;3.13;;
52188;SDS011;38162;45.926;13.608;2022-12-16T00:08:55;5.50;;;3.03;;
52188;SDS011;38162;45.926;13.608;2022-12-16T00:11:21;4.47;;;2.90;;
52188;SDS011;38162;45.926;13.608;2022-12-16T00:13:47;2.97;;;2.30;;
52188;SDS011;38162;45.926;13.608;2022-12-16T00:16:13;3.57;;;2.37;;
52188;SDS011;38162;45.926;13.608;2022-12-16T00:18:39;4.20;;;2.47;;
52188;SDS011;38162;45.926;13.608;2022-12-16T00:21:06;3.67;;;2.50;;
52188;SDS011;38162;45.926;13.608;2022-12-16T00:23:32;2.60;;;2.03;;
52188;SDS011;38162;45.926;13.608;2022-12-16T00:25:59;3.10;;;1.93;;
52188;SDS011;38162;45.926;13.608;2022-12-16T00:28:25;2.93;;;1.67;;
52188;SDS011;38162;45.926;13.608;2022-12-16T00:30:52;2.77;;;1.53;;
52188;SDS011;38162;45.926;13.608;2022-12-16T00:33:19;2.07;;;1.30;;
52188;SDS011;38162;45.926;13.608;2022-12-16T00:35:46;1.70;;;1.50;;
52188;SDS011;38162;45.926;13.608;2022-12-16T00:38:13;2.70;;;1.73;;
52188;SDS011;38162;45.926;13.608;2022-12-16T00:40:39;4.00;;;1.80;;
52188;SDS011;38162;45.926;13.608;2022-12-16T00:43:05;1.97;;;1.30;;
52188;SDS011;38162;45.926;13.608;2022-12-16T00:45:31;4.73;;;1.30;;
52188;SDS011;38162;45.926;13.608;2022-12-16T00:47:57;1.50;;;0.90;;
52188;SDS011;38162;45.926;13.608;2022-12-16T00:50:23;1.50;;;0.80;;
52188;SDS011;38162;45.926;13.608;2022-12-16T00:52:49;1.80;;;0.90;;
52188;SDS011;38162;45.926;13.608;2022-12-16T00:55:16;2.40;;;1.00;;
52188;SDS011;38162;45.926;13.608;2022-12-16T00:57:42;1.17;;;0.80;;
52188;SDS011;38162;45.926;13.608;2022-12-16T01:00:09;2.10;;;1.20;;
52188;SDS011;38162;45.926;13.608;2022-12-16T01:02:39;2.27;;;1.00;;
52188;SDS011;38162;45.926;13.608;2022-12-16T01:05:05;1.13;;;0.90;;
52188;SDS011;38162;45.926;13.608;2022-12-16T01:07:32;1.70;;;1.03;;
52188;SDS011;38162;45.926;13.608;2022-12-16T01:09:58;3.93;;;1.10;;
52188;SDS011;38162;45.926;13.608;2022-12-16T01:12:24;4.13;;;1.13;;
52188;SDS011;38162;45.926;13.608;2022-12-16T01:14:50;3.27;;;1.50;;
52188;SDS011;38162;45.926;13.608;2022-12-16T01:17:16;2.83;;;1.10;;
52188;SDS011;38162;45.926;13.608;2022-12-16T01:19:42;2.93;;;1.40;;
52188;SDS011;38162;45.926;13.608;2022-12-16T01:22:08;5.70;;;1.27;;
52188;SDS011;38162;45.926;13.608;2022-12-16T01:24:34;2.23;;;1.20;;
52188;SDS011;38162;45.926;13.608;2022-12-16T01:27:00;2.00;;;1.10;;
52188;SDS011;38162;45.926;13.608;2022-12-16T01:29:26;2.90;;;1.23;;
52188;SDS011;38162;45.926;13.608;2022-12-16T01:31:52;2.37;;;1.20;;
52188;SDS011;38162;45.926;13.608;2022-12-16T01:34:18;1.47;;;0.90;;
52188;SDS011;38162;45.926;13.608;2022-12-16T01:36:44;1.33;;;0.87;;
52188;SDS011;38162;45.926;13.608;2022-12-16T01:39:10;5.40;;;0.87;;
52188;SDS011;38162;45.926;13.608;2022-12-16T01:41:37;1.97;;;1.07;;
52188;SDS011;38162;45.926;13.608;2022-12-16T01:44:13;1.27;;;0.73;;
52188;SDS011;38162;45.926;13.608;2022-12-16T01:46:39;2.23;;;0.80;;
52188;SDS011;38162;45.926;13.608;2022-12-16T01:49:08;2.10;;;0.73;;
52188;SDS011;38162;45.926;13.608;2022-12-16T01:51:39;4.37;;;1.00;;
52188;SDS011;38162;45.926;13.608;2022-12-16T01:54:08;2.70;;;0.90;;
52188;SDS011;38162;45.926;13.608;2022-12-16T01:56:36;2.77;;;0.83;;
52188;SDS011;38162;45.926;13.608;2022-12-16T01:59:05;1.70;;;0.93;;
52188;SDS011;38162;45.926;13.608;2022-12-16T02:01:32;1.90;;;1.00;;
52188;SDS011;38162;45.926;13.608;2022-12-16T02:03:58;2.17;;;0.90;;
52188;SDS011;38162;45.926;13.608;2022-12-16T02:06:26;1.03;;;0.83;;
52188;SDS011;38162;45.926;13.608;2022-12-16T02:08:54;2.13;;;0.80;;
52188;SDS011;38162;45.926;13.608;2022-12-16T02:32:14;1.13;;;0.90;;
52188;SDS011;38162;45.926;13.608;2022-12-16T02:34:58;1.63;;;1.20;;
52188;SDS011;38162;45.926;13.608;2022-12-16T02:37:47;3.77;;;1.40;;
52188;SDS011;38162;45.926;13.608;2022-12-16T02:40:25;1.13;;;0.90;;
52188;SDS011;38162;45.926;13.608;2022-12-16T02:42:54;5.23;;;1.37;;
52188;SDS011;38162;45.926;13.608;2022-12-16T02:45:24;4.93;;;1.50;;
52188;SDS011;38162;45.926;13.608;2022-12-16T02:47:51;1.33;;;1.00;;
52188;SDS011;38162;45.926;13.608;2022-12-16T02:50:39;2.17;;;1.03;;
52188;SDS011;38162;45.926;13.608;2022-12-16T02:53:04;3.73;;;1.03;;
52188;SDS011;38162;45.926;13.608;2022-12-16T02:56:14;3.87;;;1.20;;
52188;SDS011;38162;45.926;13.608;2022-12-16T02:58:27;1.40;;;1.30;;
52188;SDS011;38162;45.926;13.608;2022-12-16T03:03:23;3.00;;;1.37;;
52188;SDS011;38162;45.926;13.608;2022-12-16T03:05:54;3.07;;;1.80;;
52188;SDS011;38162;45.926;13.608;2022-12-16T03:08:25;2.60;;;1.40;;
52188;SDS011;38162;45.926;13.608;2022-12-16T03:10:55;5.22;;;1.75;;
52188;SDS011;38162;45.926;13.608;2022-12-16T03:13:22;3.97;;;2.10;;
52188;SDS011;38162;45.926;13.608;2022-12-16T03:15:48;4.87;;;2.43;;
52188;SDS011;38162;45.926;13.608;2022-12-16T03:18:15;4.07;;;2.17;;
52188;SDS011;38162;45.926;13.608;2022-12-16T03:20:45;4.63;;;1.93;;
52188;SDS011;38162;45.926;13.608;2022-12-16T03:23:13;3.87;;;2.30;;
52188;SDS011;38162;45.926;13.608;2022-12-16T03:25:41;4.70;;;2.70;;
52188;SDS011;38162;45.926;13.608;2022-12-16T03:30:43;10.67;;;2.10;;
52188;SDS011;38162;45.926;13.608;2022-12-16T03:33:27;5.60;;;1.95;;
52188;SDS011;38162;45.926;13.608;2022-12-16T03:35:58;9.43;;;3.03;;
52188;SDS011;38162;45.926;13.608;2022-12-16T03:38:25;6.30;;;1.90;;
52188;SDS011;38162;45.926;13.608;2022-12-16T03:40:51;9.70;;;2.60;;
52188;SDS011;38162;45.926;13.608;2022-12-16T03:43:18;6.93;;;2.73;;
52188;SDS011;38162;45.926;13.608;2022-12-16T03:45:44;7.20;;;2.10;;
52188;SDS011;38162;45.926;13.608;2022-12-16T03:48:11;4.57;;;2.30;;
52188;SDS011;38162;45.926;13.608;2022-12-16T03:50:38;9.63;;;2.20;;
52188;SDS011;38162;45.926;13.608;2022-12-16T03:53:04;9.27;;;2.20;;
52188;SDS011;38162;45.926;13.608;2022-12-16T03:55:31;5.77;;;2.73;;
52188;SDS011;38162;45.926;13.608;2022-12-16T03:57:57;8.10;;;2.40;;
52188;SDS011;38162;45.926;13.608;2022-12-16T04:00:23;9.40;;;2.67;;
52188;SDS011;38162;45.926;13.608;2022-12-16T04:02:50;5.53;;;2.57;;
52188;SDS011;38162;45.926;13.608;2022-12-16T04:05:16;6.17;;;2.87;;
52188;SDS011;38162;45.926;13.608;2022-12-16T04:07:42;6.07;;;2.80;;
52188;SDS011;38162;45.926;13.608;2022-12-16T04:10:08;7.87;;;3.10;;
52188;SDS011;38162;45.926;13.608;2022-12-16T04:12:34;8.40;;;3.30;;
52188;SDS011;38162;45.926;13.608;2022-12-16T04:15:20;13.93;;;4.07;;
52188;SDS011;38162;45.926;13.608;2022-12-16T04:18:07;8.17;;;3.17;;
52188;SDS011;38162;45.926;13.608;2022-12-16T04:20:56;11.93;;;4.27;;
52188;SDS011;38162;45.926;13.608;2022-12-16T04:23:44;8.47;;;3.63;;
52188;SDS011;38162;45.926;13.608;2022-12-16T04:26:30;8.43;;;3.97;;
52188;SDS011;38162;45.926;13.608;2022-12-16T04:29:16;11.60;;;4.17;;
52188;SDS011;38162;45.926;13.608;2022-12-16T04:31:42;9.90;;;4.80;;
52188;SDS011;38162;45.926;13.608;2022-12-16T04:34:08;6.57;;;5.17;;
52188;SDS011;38162;45.926;13.608;2022-12-16T04:36:50;6.23;;;3.90;;
52188;SDS011;38162;45.926;13.608;2022-12-16T04:39:34;8.40;;;4.43;;
52188;SDS011;38162;45.926;13.608;2022-12-16T04:42:19;10.57;;;4.87;;
52188;SDS011;38162;45.926;13.608;2022-12-16T04:45:04;9.93;;;4.97;;
52188;SDS011;38162;45.926;13.608;2022-12-16T04:47:49;14.20;;;5.40;;
52188;SDS011;38162;45.926;13.608;2022-12-16T04:50:33;7.70;;;5.43;;
52188;SDS011;38162;45.926;13.608;2022-12-16T04:53:18;12.63;;;5.23;;
52188;SDS011;38162;45.926;13.608;2022-12-16T04:56:02;8.00;;;5.43;;
52188;SDS011;38162;45.926;13.608;2022-12-16T04:58:47;10.33;;;4.90;;
52188;SDS011;38162;45.926;13.608;2022-12-16T05:01:32;5.53;;;4.90;;
52188;SDS011;38162;45.926;13.608;2022-12-16T05:04:16;7.67;;;5.40;;
52188;SDS011;38162;45.926;13.608;2022-12-16T05:07:01;10.57;;;5.17;;
52188;SDS011;38162;45.926;13.608;2022-12-16T05:09:45;12.73;;;6.23;;
52188;SDS011;38162;45.926;13.608;2022-12-16T05:12:30;11.53;;;4.87;;
52188;SDS011;38162;45.926;13.608;2022-12-16T05:15:14;13.73;;;5.50;;
52188;SDS011;38162;45.926;13.608;2022-12-16T05:18:06;14.87;;;5.90;;
52188;SDS011;38162;45.926;13.608;2022-12-16T05:20:50;9.57;;;5.37;;
52188;SDS011;38162;45.926;13.608;2022-12-16T05:23:35;9.47;;;5.07;;
52188;SDS011;38162;45.926;13.608;2022-12-16T05:26:19;10.40;;;6.13;;
52188;SDS011;38162;45.926;13.608;2022-12-16T05:29:04;7.87;;;4.60;;
52188;SDS011;38162;45.926;13.608;2022-12-16T05:31:49;12.83;;;5.70;;
52188;SDS011;38162;45.926;13.608;2022-12-16T05:34:33;11.43;;;5.20;;
52188;SDS011;38162;45.926;13.608;2022-12-16T05:37:18;12.13;;;5.40;;
52188;SDS011;38162;45.926;13.608;2022-12-16T05:40:02;12.57;;;5.10;;
52188;SDS011;38162;45.926;13.608;2022-12-16T05:42:47;13.53;;;6.47;;
52188;SDS011;38162;45.926;13.608;2022-12-16T05:45:32;11.20;;;6.53;;
52188;SDS011;38162;45.926;13.608;2022-12-16T05:48:17;8.37;;;6.03;;
52188;SDS011;38162;45.926;13.608;2022-12-16T05:51:01;9.33;;;6.23;;
52188;SDS011;38162;45.926;13.608;2022-12-16T05:53:46;10.57;;;6.60;;
52188;SDS011;38162;45.926;13.608;2022-12-16T05:56:30;12.73;;;6.63;;
52188;SDS011;38162;45.926;13.608;2022-12-16T05:59:15;12.90;;;6.37;;
52188;SDS011;38162;45.926;13.608;2022-12-16T06:01:59;10.97;;;6.30;;
52188;SDS011;38162;45.926;13.608;2022-12-16T06:04:44;8.87;;;6.03;;
52188;SDS011;38162;45.926;13.608;2022-12-16T06:07:28;9.90;;;6.60;;
52188;SDS011;38162;45.926;13.608;2022-12-16T06:10:13;17.77;;;7.27;;
52188;SDS011;38162;45.926;13.608;2022-12-16T06:12:57;16.60;;;7.43;;
52188;SDS011;38162;45.926;13.608;2022-12-16T06:15:42;11.67;;;7.60;;
52188;SDS011;38162;45.926;13.608;2022-12-16T06:18:26;10.50;;;7.20;;
52188;SDS011;38162;45.926;13.608;2022-12-16T06:21:11;13.57;;;8.07;;
52188;SDS011;38162;45.926;13.608;2022-12-16T06:23:55;14.60;;;8.37;;
52188;SDS011;38162;45.926;13.608;2022-12-16T06:26:40;14.77;;;7.73;;
52188;SDS011;38162;45.926;13.608;2022-12-16T06:29:24;18.53;;;7.50;;
52188;SDS011;38162;45.926;13.608;2022-12-16T06:32:09;10.77;;;7.97;;
52188;SDS011;38162;45.926;13.608;2022-12-16T06:34:53;13.10;;;8.10;;
52188;SDS011;38162;45.926;13.608;2022-12-16T06:37:38;15.60;;;8.60;;
52188;SDS011;38162;45.926;13.608;2022-12-16T06:40:22;17.43;;;9.37;;
52188;SDS011;38162;45.926;13.608;2022-12-16T06:43:07;17.80;;;9.53;;
52188;SDS011;38162;45.926;13.608;2022-12-16T06:45:52;16.40;;;9.20;;
52188;SDS011;38162;45.926;13.608;2022-12-16T06:48:36;14.33;;;8.67;;
52188;SDS011;38162;45.926;13.608;2022-12-16T06:51:21;16.07;;;7.73;;
52188;SDS011;38162;45.926;13.608;2022-12-16T06:54:05;10.57;;;8.00;;
52188;SDS011;38162;45.926;13.608;2022-12-16T06:56:50;12.30;;;7.00;;
52188;SDS011;38162;45.926;13.608;2022-12-16T06:59:35;11.90;;;7.90;;
52188;SDS011;38162;45.926;13.608;2022-12-16T07:02:19;14.30;;;8.30;;
52188;SDS011;38162;45.926;13.608;2022-12-16T07:05:04;11.67;;;7.60;;
52188;SDS011;38162;45.926;13.608;2022-12-16T07:07:49;11.90;;;7.73;;
52188;SDS011;38162;45.926;13.608;2022-12-16T07:10:34;10.43;;;7.40;;
52188;SDS011;38162;45.926;13.608;2022-12-16T07:13:20;11.37;;;7.70;;
52188;SDS011;38162;45.926;13.608;2022-12-16T07:16:04;11.33;;;6.60;;
52188;SDS011;38162;45.926;13.608;2022-12-16T07:18:49;11.10;;;6.27;;
52188;SDS011;38162;45.926;13.608;2022-12-16T07:21:34;10.17;;;6.57;;
52188;SDS011;38162;45.926;13.608;2022-12-16T07:24:32;11.40;;;6.77;;
52188;SDS011;38162;45.926;13.608;2022-12-16T07:27:17;10.07;;;6.87;;
52188;SDS011;38162;45.926;13.608;2022-12-16T07:30:02;15.40;;;7.90;;
52188;SDS011;38162;45.926;13.608;2022-12-16T07:32:48;14.63;;;8.40;;
52188;SDS011;38162;45.926;13.608;2022-12-16T07:35:33;14.47;;;8.23;;
52188;SDS011;38162;45.926;13.608;2022-12-16T07:38:17;12.57;;;7.80;;
52188;SDS011;38162;45.926;13.608;2022-12-16T07:41:02;13.13;;;7.77;;
52188;SDS011;38162;45.926;13.608;2022-12-16T07:43:47;12.33;;;6.83;;
52188;SDS011;38162;45.926;13.608;2022-12-16T07:46:31;10.53;;;6.67;;
52188;SDS011;38162;45.926;13.608;2022-12-16T07:49:16;11.47;;;6.60;;
52188;SDS011;38162;45.926;13.608;2022-12-16T07:52:00;12.50;;;6.70;;
52188;SDS011;38162;45.926;13.608;2022-12-16T07:54:45;10.10;;;6.43;;
52188;SDS011;38162;45.926;13.608;2022-12-16T07:57:29;13.03;;;6.43;;
52188;SDS011;38162;45.926;13.608;2022-12-16T08:00:14;12.40;;;6.87;;
52188;SDS011;38162;45.926;13.608;2022-12-16T08:02:58;10.23;;;7.00;;
52188;SDS011;38162;45.926;13.608;2022-12-16T08:05:43;12.00;;;7.57;;
52188;SDS011;38162;45.926;13.608;2022-12-16T08:08:27;11.37;;;7.20;;
52188;SDS011;38162;45.926;13.608;2022-12-16T08:11:12;10.93;;;7.73;;
52188;SDS011;38162;45.926;13.608;2022-12-16T08:13:56;11.30;;;8.17;;
52188;SDS011;38162;45.926;13.608;2022-12-16T08:16:41;13.93;;;9.10;;
52188;SDS011;38162;45.926;13.608;2022-12-16T08:19:25;13.80;;;8.63;;
52188;SDS011;38162;45.926;13.608;2022-12-16T08:22:10;12.70;;;8.00;;
52188;SDS011;38162;45.926;13.608;2022-12-16T08:24:54;13.10;;;6.67;;
52188;SDS011;38162;45.926;13.608;2022-12-16T08:27:39;12.03;;;5.73;;
52188;SDS011;38162;45.926;13.608;2022-12-16T08:30:23;12.57;;;6.20;;
52188;SDS011;38162;45.926;13.608;2022-12-16T08:33:08;11.73;;;6.83;;
52188;SDS011;38162;45.926;13.608;2022-12-16T08:36:03;10.60;;;6.17;;
52188;SDS011;38162;45.926;13.608;2022-12-16T08:38:48;10.50;;;6.10;;
52188;SDS011;38162;45.926;13.608;2022-12-16T08:41:33;13.07;;;8.03;;
52188;SDS011;38162;45.926;13.608;2022-12-16T08:44:17;22.60;;;12.70;;
52188;SDS011;38162;45.926;13.608;2022-12-16T08:47:02;27.73;;;15.47;;
52188;SDS011;38162;45.926;13.608;2022-12-16T08:49:47;21.00;;;14.37;;
52188;SDS011;38162;45.926;13.608;2022-12-16T08:52:32;16.43;;;11.27;;
52188;SDS011;38162;45.926;13.608;2022-12-16T08:55:16;16.97;;;10.70;;
52188;SDS011;38162;45.926;13.608;2022-12-16T08:58:01;21.53;;;12.20;;
52188;SDS011;38162;45.926;13.608;2022-12-16T09:00:45;13.33;;;9.40;;
52188;SDS011;38162;45.926;13.608;2022-12-16T09:03:30;13.37;;;8.53;;
52188;SDS011;38162;45.926;13.608;2022-12-16T09:06:16;14.33;;;8.87;;
52188;SDS011;38162;45.926;13.608;2022-12-16T09:09:01;14.70;;;9.87;;
52188;SDS011;38162;45.926;13.608;2022-12-16T09:11:46;20.87;;;11.70;;
52188;SDS011;38162;45.926;13.608;2022-12-16T09:14:30;18.00;;;13.17;;
52188;SDS011;38162;45.926;13.608;2022-12-16T09:17:15;25.17;;;16.63;;
52188;SDS011;38162;45.926;13.608;2022-12-16T09:19:59;26.13;;;16.37;;
52188;SDS011;38162;45.926;13.608;2022-12-16T09:22:44;25.13;;;17.37;;
52188;SDS011;38162;45.926;13.608;2022-12-16T09:25:29;27.70;;;18.80;;
52188;SDS011;38162;45.926;13.608;2022-12-16T09:28:13;24.40;;;17.87;;
52188;SDS011;38162;45.926;13.608;2022-12-16T09:30:58;22.97;;;15.83;;
52188;SDS011;38162;45.926;13.608;2022-12-16T09:33:42;25.57;;;16.90;;
52188;SDS011;38162;45.926;13.608;2022-12-16T09:36:27;26.53;;;16.63;;
52188;SDS011;38162;45.926;13.608;2022-12-16T09:39:11;18.63;;;11.30;;
52188;SDS011;38162;45.926;13.608;2022-12-16T09:42:05;14.10;;;9.83;;
52188;SDS011;38162;45.926;13.608;2022-12-16T09:45:17;18.63;;;9.63;;
52188;SDS011;38162;45.926;13.608;2022-12-16T09:51:01;13.53;;;8.97;;
52188;SDS011;38162;45.926;13.608;2022-12-16T09:53:47;16.83;;;9.47;;
52188;SDS011;38162;45.926;13.608;2022-12-16T09:56:33;12.67;;;7.83;;
52188;SDS011;38162;45.926;13.608;2022-12-16T09:59:37;12.80;;;8.20;;
52188;SDS011;38162;45.926;13.608;2022-12-16T10:02:23;12.30;;;8.70;;
52188;SDS011;38162;45.926;13.608;2022-12-16T10:05:12;12.93;;;8.43;;
52188;SDS011;38162;45.926;13.608;2022-12-16T10:08:05;13.83;;;9.13;;
52188;SDS011;38162;45.926;13.608;2022-12-16T10:19:21;10.43;;;8.33;;
52188;SDS011;38162;45.926;13.608;2022-12-16T10:30:57;13.53;;;9.27;;
52188;SDS011;38162;45.926;13.608;2022-12-16T10:33:59;13.73;;;10.07;;
52188;SDS011;38162;45.926;13.608;2022-12-16T10:36:43;15.97;;;10.57;;
52188;SDS011;38162;45.926;13.608;2022-12-16T10:39:33;14.57;;;9.83;;
52188;SDS011;38162;45.926;13.608;2022-12-16T10:42:29;15.77;;;10.37;;
52188;SDS011;38162;45.926;13.608;2022-12-16T10:45:27;19.03;;;11.87;;
52188;SDS011;38162;45.926;13.608;2022-12-16T10:48:16;17.60;;;11.37;;
52188;SDS011;38162;45.926;13.608;2022-12-16T11:00:11;13.60;;;9.70;;
52188;SDS011;38162;45.926;13.608;2022-12-16T11:03:10;14.77;;;9.38;;
52188;SDS011;38162;45.926;13.608;2022-12-16T11:06:00;13.93;;;9.10;;
52188;SDS011;38162;45.926;13.608;2022-12-16T11:08:44;14.60;;;10.20;;
52188;SDS011;38162;45.926;13.608;2022-12-16T11:11:29;19.57;;;14.67;;
52188;SDS011;38162;45.926;13.608;2022-12-16T11:17:24;16.23;;;12.33;;
52188;SDS011;38162;45.926;13.608;2022-12-16T11:20:23;17.00;;;13.57;;
52188;SDS011;38162;45.926;13.608;2022-12-16T11:23:21;21.67;;;17.53;;
52188;SDS011;38162;45.926;13.608;2022-12-16T11:26:11;21.77;;;18.90;;
52188;SDS011;38162;45.926;13.608;2022-12-16T11:31:48;20.53;;;15.53;;
52188;SDS011;38162;45.926;13.608;2022-12-16T11:34:33;18.33;;;15.43;;
52188;SDS011;38162;45.926;13.608;2022-12-16T11:37:18;17.57;;;14.60;;
52188;SDS011;38162;45.926;13.608;2022-12-16T11:40:03;17.37;;;13.90;;
52188;SDS011;38162;45.926;13.608;2022-12-16T11:42:48;17.73;;;13.23;;
52188;SDS011;38162;45.926;13.608;2022-12-16T11:45:33;18.03;;;12.43;;
52188;SDS011;38162;45.926;13.608;2022-12-16T11:51:03;14.10;;;11.53;;
52188;SDS011;38162;45.926;13.608;2022-12-16T11:53:58;14.80;;;13.07;;
52188;SDS011;38162;45.926;13.608;2022-12-16T11:56:44;19.77;;;15.17;;
52188;SDS011;38162;45.926;13.608;2022-12-16T11:59:33;16.67;;;13.03;;
52188;SDS011;38162;45.926;13.608;2022-12-16T12:02:24;17.07;;;13.03;;
52188;SDS011;38162;45.926;13.608;2022-12-16T12:05:11;17.73;;;13.40;;
52188;SDS011;38162;45.926;13.608;2022-12-16T12:08:00;17.80;;;13.03;;
52188;SDS011;38162;45.926;13.608;2022-12-16T12:11:07;17.88;;;13.63;;
52188;SDS011;38162;45.926;13.608;2022-12-16T12:14:00;17.50;;;13.77;;
52188;SDS011;38162;45.926;13.608;2022-12-16T12:22:48;15.33;;;12.93;;
52188;SDS011;38162;45.926;13.608;2022-12-16T12:28:21;18.50;;;14.53;;
52188;SDS011;38162;45.926;13.608;2022-12-16T12:37:16;17.57;;;12.10;;
52188;SDS011;38162;45.926;13.608;2022-12-16T12:40:28;19.00;;;12.23;;
52188;SDS011;38162;45.926;13.608;2022-12-16T12:49:16;22.57;;;14.00;;
52188;SDS011;38162;45.926;13.608;2022-12-16T12:52:07;29.33;;;15.50;;
52188;SDS011;38162;45.926;13.608;2022-12-16T12:55:00;23.30;;;13.93;;
52188;SDS011;38162;45.926;13.608;2022-12-16T12:57:46;26.53;;;16.10;;
52188;SDS011;38162;45.926;13.608;2022-12-16T13:00:34;23.23;;;14.93;;
52188;SDS011;38162;45.926;13.608;2022-12-16T13:03:32;17.57;;;13.70;;
52188;SDS011;38162;45.926;13.608;2022-12-16T13:06:18;17.60;;;12.10;;
52188;SDS011;38162;45.926;13.608;2022-12-16T13:09:20;17.47;;;12.50;;
52188;SDS011;38162;45.926;13.608;2022-12-16T13:18:18;14.53;;;11.13;;
52188;SDS011;38162;45.926;13.608;2022-12-16T13:20:46;14.30;;;10.77;;
52188;SDS011;38162;45.926;13.608;2022-12-16T13:23:35;26.50;;;21.87;;
52188;SDS011;38162;45.926;13.608;2022-12-16T13:26:20;23.90;;;19.20;;
52188;SDS011;38162;45.926;13.608;2022-12-16T13:32:00;26.83;;;19.97;;
52188;SDS011;38162;45.926;13.608;2022-12-16T13:34:57;24.17;;;17.27;;
52188;SDS011;38162;45.926;13.608;2022-12-16T13:37:49;20.87;;;15.70;;
52188;SDS011;38162;45.926;13.608;2022-12-16T13:40:46;24.10;;;14.90;;
52188;SDS011;38162;45.926;13.608;2022-12-16T13:58:25;21.80;;;17.00;;
52188;SDS011;38162;45.926;13.608;2022-12-16T14:01:13;17.17;;;15.37;;
52188;SDS011;38162;45.926;13.608;2022-12-16T14:04:03;15.27;;;11.83;;
52188;SDS011;38162;45.926;13.608;2022-12-16T14:06:58;17.05;;;12.05;;
52188;SDS011;38162;45.926;13.608;2022-12-16T14:09:46;13.97;;;9.80;;
52188;SDS011;38162;45.926;13.608;2022-12-16T14:15:39;12.57;;;9.07;;
52188;SDS011;38162;45.926;13.608;2022-12-16T14:24:38;13.93;;;11.07;;
52188;SDS011;38162;45.926;13.608;2022-12-16T14:27:24;18.13;;;13.83;;
52188;SDS011;38162;45.926;13.608;2022-12-16T14:30:19;14.40;;;11.83;;
52188;SDS011;38162;45.926;13.608;2022-12-16T14:36:23;16.73;;;15.00;;
52188;SDS011;38162;45.926;13.608;2022-12-16T14:39:09;15.87;;;12.97;;
52188;SDS011;38162;45.926;13.608;2022-12-16T14:41:58;16.13;;;13.07;;
52188;SDS011;38162;45.926;13.608;2022-12-16T14:44:44;13.07;;;10.40;;
52188;SDS011;38162;45.926;13.608;2022-12-16T14:47:28;12.33;;;9.87;;
52188;SDS011;38162;45.926;13.608;2022-12-16T14:50:31;13.37;;;11.50;;
52188;SDS011;38162;45.926;13.608;2022-12-16T14:53:20;14.52;;;11.55;;
52188;SDS011;38162;45.926;13.608;2022-12-16T14:56:23;15.60;;;13.60;;
52188;SDS011;38162;45.926;13.608;2022-12-16T14:59:17;19.08;;;16.95;;
52188;SDS011;38162;45.926;13.608;2022-12-16T15:02:48;14.93;;;13.33;;
52188;SDS011;38162;45.926;13.608;2022-12-16T15:05:08;17.67;;;13.77;;
52188;SDS011;38162;45.926;13.608;2022-12-16T15:07:53;15.70;;;13.13;;
52188;SDS011;38162;45.926;13.608;2022-12-16T15:10:37;17.80;;;14.27;;
52188;SDS011;38162;45.926;13.608;2022-12-16T15:13:22;19.17;;;14.77;;
52188;SDS011;38162;45.926;13.608;2022-12-16T15:16:10;16.30;;;13.83;;
52188;SDS011;38162;45.926;13.608;2022-12-16T15:18:58;14.90;;;12.77;;
52188;SDS011;38162;45.926;13.608;2022-12-16T15:21:44;13.43;;;11.67;;
52188;SDS011;38162;45.926;13.608;2022-12-16T15:24:29;15.33;;;13.30;;
52188;SDS011;38162;45.926;13.608;2022-12-16T15:33:09;30.77;;;21.07;;
52188;SDS011;38162;45.926;13.608;2022-12-16T15:36:02;31.40;;;24.03;;
52188;SDS011;38162;45.926;13.608;2022-12-16T15:38:48;34.23;;;27.77;;
52188;SDS011;38162;45.926;13.608;2022-12-16T15:41:33;35.80;;;29.17;;
52188;SDS011;38162;45.926;13.608;2022-12-16T15:44:20;31.33;;;23.60;;
52188;SDS011;38162;45.926;13.608;2022-12-16T15:47:15;30.77;;;19.93;;
52188;SDS011;38162;45.926;13.608;2022-12-16T15:50:09;27.10;;;17.83;;
52188;SDS011;38162;45.926;13.608;2022-12-16T15:55:58;22.23;;;18.50;;
52188;SDS011;38162;45.926;13.608;2022-12-16T15:58:43;27.50;;;18.90;;
52188;SDS011;38162;45.926;13.608;2022-12-16T16:01:38;24.90;;;21.40;;
52188;SDS011;38162;45.926;13.608;2022-12-16T16:07:23;26.20;;;20.60;;
52188;SDS011;38162;45.926;13.608;2022-12-16T16:10:21;24.77;;;20.03;;
52188;SDS011;38162;45.926;13.608;2022-12-16T16:13:06;22.77;;;19.10;;
52188;SDS011;38162;45.926;13.608;2022-12-16T16:15:54;27.13;;;21.33;;
52188;SDS011;38162;45.926;13.608;2022-12-16T16:18:39;24.40;;;18.80;;
52188;SDS011;38162;45.926;13.608;2022-12-16T16:21:24;27.73;;;20.63;;
52188;SDS011;38162;45.926;13.608;2022-12-16T16:24:09;26.80;;;21.00;;
52188;SDS011;38162;45.926;13.608;2022-12-16T16:26:54;31.17;;;22.57;;
52188;SDS011;38162;45.926;13.608;2022-12-16T16:29:40;28.57;;;21.43;;
52188;SDS011;38162;45.926;13.608;2022-12-16T16:32:24;24.53;;;19.47;;
52188;SDS011;38162;45.926;13.608;2022-12-16T16:35:09;28.80;;;22.00;;
52188;SDS011;38162;45.926;13.608;2022-12-16T16:37:53;29.07;;;22.63;;
52188;SDS011;38162;45.926;13.608;2022-12-16T16:40:39;33.17;;;25.90;;
52188;SDS011;38162;45.926;13.608;2022-12-16T16:43:24;28.73;;;22.37;;
52188;SDS011;38162;45.926;13.608;2022-12-16T16:46:21;26.20;;;21.13;;
52188;SDS011;38162;45.926;13.608;2022-12-16T16:49:10;23.53;;;18.87;;
52188;SDS011;38162;45.926;13.608;2022-12-16T16:51:55;22.43;;;18.50;;
52188;SDS011;38162;45.926;13.608;2022-12-16T16:54:40;20.07;;;15.73;;
52188;SDS011;38162;45.926;13.608;2022-12-16T16:57:25;21.47;;;16.63;;
52188;SDS011;38162;45.926;13.608;2022-12-16T17:00:11;23.70;;;18.23;;
52188;SDS011;38162;45.926;13.608;2022-12-16T17:02:56;24.20;;;16.00;;
52188;SDS011;38162;45.926;13.608;2022-12-16T17:05:41;20.07;;;13.90;;
52188;SDS011;38162;45.926;13.608;2022-12-16T17:08:26;20.33;;;15.00;;
52188;SDS011;38162;45.926;13.608;2022-12-16T17:11:18;17.50;;;13.83;;
52188;SDS011;38162;45.926;13.608;2022-12-16T17:14:02;19.00;;;15.80;;
52188;SDS011;38162;45.926;13.608;2022-12-16T17:16:47;22.07;;;15.07;;
52188;SDS011;38162;45.926;13.608;2022-12-16T17:19:32;20.37;;;14.47;;
52188;SDS011;38162;45.926;13.608;2022-12-16T17:22:16;25.03;;;19.47;;
52188;SDS011;38162;45.926;13.608;2022-12-16T17:25:01;20.93;;;17.40;;
52188;SDS011;38162;45.926;13.608;2022-12-16T17:27:45;25.17;;;21.40;;
52188;SDS011;38162;45.926;13.608;2022-12-16T17:30:32;36.30;;;24.90;;
52188;SDS011;38162;45.926;13.608;2022-12-16T17:33:20;26.17;;;21.33;;
52188;SDS011;38162;45.926;13.608;2022-12-16T17:36:05;29.83;;;23.95;;
52188;SDS011;38162;45.926;13.608;2022-12-16T17:38:53;33.87;;;22.27;;
52188;SDS011;38162;45.926;13.608;2022-12-16T17:41:44;25.33;;;19.17;;
52188;SDS011;38162;45.926;13.608;2022-12-16T17:44:32;24.57;;;17.67;;
52188;SDS011;38162;45.926;13.608;2022-12-16T17:47:23;24.07;;;17.43;;
52188;SDS011;38162;45.926;13.608;2022-12-16T17:50:11;22.27;;;16.47;;
52188;SDS011;38162;45.926;13.608;2022-12-16T17:52:57;19.53;;;15.37;;
52188;SDS011;38162;45.926;13.608;2022-12-16T17:55:42;21.50;;;17.07;;
52188;SDS011;38162;45.926;13.608;2022-12-16T17:58:45;28.33;;;18.70;;
52188;SDS011;38162;45.926;13.608;2022-12-16T18:01:32;27.00;;;19.35;;